Latest Weather Observations for Telfer

IDW60801

Issued at 10:04 am WST Friday 19 December 2014 (issued every 30 minutes, with the page automatically refreshed every 10 minutes)

About weather observations | Map of weather stations | Latest weather observations for WA | Other Formats
Station Details ID: 013030 Name: TELFER AERO Lat: -21.71 Lon: 122.23 Height: 291.9 m
Data from the previous 72 hours. | See also: Recent months at Telfer
Date/Time
WST
Temp
°C
App
Temp
°C
Dew
Point
Rel
Hum
%
Delta-T
°C
Wind Press
QNH
hPa
Press
MSL
hPa
Rain
since 9 am
mm
Dir
 
Spd
km/h
Gust
km/h
Spd
kts
Gust
kts
19/10:00am 34.3 32.0 14.2 29 12.5 NW 19 30 10 16 1014.0 1011.5 0.0
19/09:30am 33.0 30.7 13.1 30 12.1 NNW 17 30 9 16 1014.1 1011.6 0.0
19/09:00am 32.9 30.1 12.5 29 12.3 NNW 19 30 10 16 1014.1 1011.6 0.0
19/08:30am 32.7 30.8 12.9 30 12.0 NNW 15 30 8 16 1014.2 1011.7 0.0
19/08:00am 31.1 28.9 13.4 34 10.7 N 17 24 9 13 1014.3 1011.8 0.0
19/07:30am 30.2 28.6 15.1 40 9.4 N 17 26 9 14 1014.3 1011.8 0.0
19/07:00am 29.4 27.2 14.8 41 9.0 N 20 28 11 15 1014.1 1011.6 0.0
19/06:30am 28.6 25.7 14.1 41 8.8 N 22 30 12 16 1013.6 1011.1 0.0
19/06:00am 28.0 26.4 11.5 35 9.6 N 11 22 6 12 1013.2 1010.7 0.0
19/05:30am 26.8 25.2 11.7 39 8.8 N 11 15 6 8 1012.6 1010.2 0.0
19/05:00am 26.6 25.5 11.9 40 8.6 NNE 9 11 5 6 1012.0 1009.6 0.0
19/04:30am 26.6 25.7 12.6 42 8.2 NE 9 13 5 7 1011.4 1009.0 0.0
19/04:00am 27.6 26.8 12.8 40 8.8 N 9 13 5 7 1010.7 1008.2 0.0
19/03:30am 27.9 27.7 13.1 40 8.8 N 6 9 3 5 1010.4 1007.9 0.0
19/03:00am 29.1 27.4 12.5 36 9.9 WNW 13 15 7 8 1009.7 1007.2 0.0
19/02:30am 29.4 27.8 12.8 36 9.9 WNW 13 19 7 10 1009.2 1006.8 0.0
19/02:00am 30.0 27.1 12.4 34 10.5 W 19 22 10 12 1008.9 1006.5 0.0
19/01:30am 30.4 26.7 11.4 31 11.1 W 22 30 12 16 1008.8 1006.4 0.0
19/01:00am 30.7 27.3 11.1 30 11.5 WNW 20 28 11 15 1009.1 1006.7 0.0
19/12:30am 30.9 28.3 13.2 34 10.7 WNW 19 26 10 14 1009.4 1007.0 0.0
19/12:00am 31.5 28.7 14.2 35 10.7 NW 22 35 12 19 1009.3 1006.9 0.0
 
Date/Time
WST
Temp
°C
App
Temp
°C
Dew
Point
Rel
Hum
%
Delta-T
°C
Wind Press
QNH
hPa
Press
MSL
hPa
Rain
since 9 am
mm
Dir
 
Spd
km/h
Gust
km/h
Spd
kts
Gust
kts
18/11:30pm 32.1 30.1 13.8 33 11.2 NW 17 22 9 12 1009.2 1006.8 0.0
18/11:00pm 32.9 29.8 13.5 30 11.9 NW 22 30 12 16 1009.4 1007.0 0.0
18/10:30pm 33.6 31.1 13.6 29 12.3 NW 19 24 10 13 1009.7 1007.2 0.0
18/10:00pm 34.3 31.1 14.2 29 12.5 NW 24 35 13 19 1009.1 1006.7 0.0
18/09:30pm 35.1 32.1 13.8 27 13.2 NW 22 30 12 16 1009.0 1006.6 0.0
18/09:00pm 35.8 32.7 13.3 26 13.9 NW 22 35 12 19 1008.7 1006.3 0.0
18/08:30pm 35.7 34.6 12.0 24 14.4 NW 9 11 5 6 1008.2 1005.8 0.0
18/08:00pm 36.4 35.3 11.9 23 14.9 NW 9 13 5 7 1007.7 1005.2 0.0
18/07:30pm 37.4 36.1 11.4 21 15.7 NW 9 11 5 6 1007.3 1004.8 0.0
18/07:00pm 38.3 37.0 11.4 20 16.3 NW 9 13 5 7 1006.8 1004.3 0.0
18/06:30pm 39.2 37.1 11.3 19 16.9 NW 13 19 7 10 1006.3 1003.8 0.0
18/06:00pm 40.1 38.0 11.2 18 17.6 NW 13 24 7 13 1005.8 1003.4 0.0
18/05:30pm 40.7 36.2 10.0 16 18.4 WNW 24 32 13 17 1005.5 1003.1 0.0
18/05:00pm 41.4 38.0 10.5 16 18.7 WNW 19 28 10 15 1005.6 1003.2 0.0
18/04:30pm 41.0 37.5 10.2 16 18.5 NNW 19 32 10 17 1005.6 1003.2 0.0
18/04:00pm 41.7 39.5 10.8 16 18.8 WNW 13 26 7 14 1005.7 1003.3 0.0
18/03:30pm 40.6 37.4 9.9 16 18.3 N 17 32 9 17 1005.8 1003.4 0.0
18/03:00pm 41.5 38.5 10.6 16 18.8 NNW 17 24 9 13 1006.1 1003.6 0.0
18/02:30pm 40.6 37.1 10.8 17 18.0 NNW 20 30 11 16 1006.6 1004.1 0.0
18/02:00pm 41.3 38.5 11.3 17 18.4 NW 17 28 9 15 1006.8 1004.3 0.0
18/01:30pm 40.5 37.2 11.6 18 17.7 NW 20 33 11 18 1007.3 1004.8 0.0
18/01:00pm 39.7 36.6 11.7 19 17.1 N 19 32 10 17 1007.7 1005.2 0.0
18/12:30pm 38.7 36.0 11.7 20 16.4 NNW 17 28 9 15 1007.9 1005.4 0.0
18/12:00pm 38.6 36.1 12.4 21 16.1 NNW 17 33 9 18 1008.2 1005.8 0.0
18/11:30am 38.0 35.4 11.9 21 15.9 N 17 30 9 16 1008.6 1006.2 0.0
18/11:00am 37.2 34.8 12.6 23 15.1 NNW 17 28 9 15 1008.8 1006.4 0.0
18/10:30am 36.5 34.3 13.3 25 14.3 NW 17 24 9 13 1009.1 1006.7 0.0
18/10:00am 35.4 32.9 13.5 26 13.5 NW 19 28 10 15 1009.4 1007.0 0.0
18/09:30am 34.5 32.3 14.4 30 12.5 WNW 19 30 10 16 1009.7 1007.2 0.0
18/09:00am 33.2 31.9 14.8 33 11.5 NW 15 20 8 11 1009.9 1007.4 0.0
18/08:30am 31.8 30.0 14.4 34 10.7 WNW 17 24 9 13 1009.8 1007.3 0.0
18/08:00am 30.7 29.4 14.8 38 9.8 WNW 15 24 8 13 1009.8 1007.3 0.0
18/07:30am 29.2 28.9 17.4 49 7.5 NW 15 22 8 12 1009.6 1007.1 0.0
18/07:00am 27.8 26.9 18.2 56 6.2 NW 20 28 11 15 1009.3 1006.9 0.0
18/06:30am 26.8 26.0 18.1 59 5.6 NW 19 26 10 14 1009.2 1006.8 0.0
18/06:00am 26.1 26.6 17.5 59 5.5 NW 11 17 6 9 1008.7 1006.3 0.0
18/05:30am 25.3 26.0 16.2 57 5.6 NW 7 13 4 7 1008.1 1005.6 0.0
18/05:00am 25.6 25.2 15.3 53 6.3 NNW 11 15 6 8 1007.6 1005.1 0.0
18/04:30am 26.3 25.1 15.0 49 6.9 WNW 15 19 8 10 1007.4 1004.9 0.0
18/04:00am 26.7 24.3 14.5 47 7.4 WNW 20 28 11 15 1007.0 1004.5 0.0
18/03:30am 26.9 23.8 14.6 46 7.5 WNW 24 32 13 17 1006.8 1004.3 0.0
18/03:00am 27.2 23.2 14.2 44 7.9 WNW 28 35 15 19 1006.7 1004.2 0.0
18/02:30am 27.7 23.6 11.3 36 9.5 WNW 24 30 13 16 1006.8 1004.3 0.0
18/02:00am 28.0 23.4 9.8 32 10.3 NW 24 32 13 17 1006.6 1004.1 0.0
18/01:30am 28.2 24.6 9.9 32 10.4 NW 19 26 10 14 1006.8 1004.3 0.0
18/01:00am 28.7 25.3 10.4 32 10.5 NW 19 28 10 15 1006.9 1004.4 0.0
18/12:30am 29.3 26.0 10.9 32 10.7 NW 19 28 10 15 1006.9 1004.4 0.0
18/12:00am 29.8 26.4 11.3 32 10.8 NW 20 32 11 17 1007.0 1004.5 0.0
 
Date/Time
WST
Temp
°C
App
Temp
°C
Dew
Point
Rel
Hum
%
Delta-T
°C
Wind Press
QNH
hPa
Press
MSL
hPa
Rain
since 9 am
mm
Dir
 
Spd
km/h
Gust
km/h
Spd
kts
Gust
kts
17/11:30pm 30.4 27.5 12.8 34 10.5 NW 20 33 11 18 1007.4 1004.9 0.0
17/11:00pm 31.1 28.3 12.5 32 11.2 NW 19 28 10 15 1007.6 1005.1 0.0
17/10:30pm 31.7 28.3 12.5 31 11.5 NW 22 32 12 17 1007.5 1005.0 0.0
17/10:00pm 32.4 28.8 13.1 31 11.7 NW 24 32 13 17 1007.6 1005.1 0.0
17/09:30pm 33.0 29.6 13.6 31 11.9 NW 24 35 13 19 1007.4 1004.9 0.0
17/09:00pm 33.7 30.3 13.7 30 12.3 NW 24 33 13 18 1007.0 1004.5 0.0
17/08:30pm 34.4 31.0 13.8 29 12.7 NW 24 35 13 19 1006.5 1004.0 0.0
17/08:00pm 35.2 31.1 13.9 27 13.2 NW 28 41 15 22 1006.1 1003.6 0.0
17/07:30pm 36.0 32.4 14.1 27 13.7 NNW 26 37 14 20 1005.5 1003.1 0.0
17/07:00pm 36.8 33.2 14.1 25 14.2 NNW 26 37 14 20 1005.0 1002.5 0.0
17/06:30pm 37.6 34.4 14.2 25 14.7 NW 24 33 13 18 1004.3 1001.8 0.0
17/06:00pm 38.4 34.6 13.6 23 15.5 NNW 26 39 14 21 1004.0 1001.5 0.0
17/05:30pm 39.1 35.6 13.5 22 16.0 NW 24 39 13 21 1003.5 1001.0 0.0
17/05:00pm 39.6 36.0 13.2 21 16.5 NW 24 35 13 19 1003.2 1000.7 0.0
17/04:30pm 39.6 36.0 13.2 21 16.5 NNW 24 39 13 21 1003.1 1000.6 0.0
17/04:00pm 40.1 36.3 13.6 21 16.7 NNW 26 39 14 21 1003.1 1000.6 0.0
17/03:30pm 39.9 35.9 14.1 21 16.3 NW 28 41 15 22 1003.4 1000.9 0.0
17/03:00pm 39.9 37.0 14.1 21 16.4 NW 22 33 12 18 1003.6 1001.1 0.0
17/02:30pm 39.5 37.1 14.5 23 15.9 N 20 33 11 18 1004.0 1001.5 0.0
17/02:00pm 39.3 35.4 14.3 22 15.9 NNW 28 39 15 21 1004.4 1001.9 0.0
17/01:30pm 39.4 36.4 13.7 21 16.1 NNW 22 37 12 20 1004.6 1002.1 0.0
17/01:00pm 38.8 36.2 13.9 22 15.7 NNW 20 33 11 18 1005.0 1002.5 0.0
17/12:30pm 37.2 34.6 13.9 25 14.6 NW 20 30 11 16 1005.5 1003.1 0.0
17/12:00pm 36.7 34.4 14.6 26 13.9 NNW 20 33 11 18 1006.0 1003.5 0.0
17/11:30am 35.8 33.4 13.9 27 13.6 NNW 19 28 10 15 1006.5 1004.0 0.0
17/11:00am 35.0 33.5 14.3 29 12.9 NNW 15 26 8 14 1006.9 1004.4 0.0
17/10:30am 34.5 33.2 14.9 31 12.3 NNW 15 24 8 13 1007.4 1004.9 0.0
17/10:00am 34.3 32.2 14.7 30 12.3 WNW 19 28 10 15 1007.7 1005.2 0.0
17/09:30am 33.0 31.7 15.9 35 10.8 NW 17 35 9 19 1007.8 1005.3 0.0
17/09:00am 32.4 31.2 15.0 35 10.9 NW 15 22 8 12 1008.1 1005.6 0.0
17/08:30am 30.9 30.1 17.2 43 8.8 WNW 17 26 9 14 1008.2 1005.8 0.0
17/08:00am 29.9 29.6 17.4 47 8.0 NW 15 26 8 14 1008.4 1006.0 0.0
17/07:30am 29.0 28.8 18.4 52 6.9 NW 17 24 9 13 1008.5 1006.1 0.0
17/07:00am 27.9 27.6 19.1 58 5.8 NW 19 24 10 13 1008.0 1005.5 0.0
17/06:30am 27.0 26.9 19.9 65 4.7 NNW 20 30 11 16 1007.6 1005.1 0.0
17/06:00am 26.6 27.6 20.2 68 4.2 NW 15 20 8 11 1008.1 1005.6 0.0
17/05:30am 26.0 26.2 20.1 70 3.9 NNW 19 26 10 14 1007.1 1004.6 0.0
17/05:00am 26.0 26.2 20.1 70 3.9 NNW 19 28 10 15 1006.4 1003.9 0.0
17/04:30am 26.3 26.9 20.2 69 4.0 NW 17 26 9 14 1006.2 1003.7 0.0
17/04:00am 26.6 26.9 20.7 70 3.9 NNW 20 32 11 17 1006.3 1003.8 0.0
17/03:30am 27.3 27.6 20.4 66 4.6 NNW 19 30 10 16 1006.0 1003.5 0.0
17/03:00am 27.9 26.8 19.4 60 5.6 NNW 24 37 13 20 1006.2 1003.7 0.0
17/02:30am 28.4 28.1 19.6 59 5.8 NNW 20 30 11 16 1005.7 1003.3 0.0
17/02:00am 28.8 28.0 20.0 59 5.8 NW 24 35 13 19 1005.5 1003.1 0.0
17/01:30am 29.6 28.9 19.6 55 6.6 NNW 22 33 12 18 1005.7 1003.3 0.0
17/01:00am 30.3 29.4 19.0 50 7.4 NW 22 35 12 19 1005.7 1003.3 0.0
17/12:30am 30.9 30.3 18.9 48 7.9 NW 20 32 11 17 1006.0 1003.5 0.0
17/12:00am 31.4 31.2 18.4 46 8.5 NNW 17 20 9 11 1006.3 1003.8 0.0
 
Date/Time
WST
Temp
°C
App
Temp
°C
Dew
Point
Rel
Hum
%
Delta-T
°C
Wind Press
QNH
hPa
Press
MSL
hPa
Rain
since 9 am
mm
Dir
 
Spd
km/h
Gust
km/h
Spd
kts
Gust
kts
16/11:30pm 31.7 31.8 18.3 45 8.7 NW 15 24 8 13 1006.7 1004.2 0.0
16/11:00pm 32.2 31.2 18.0 42 9.3 NW 20 28 11 15 1006.8 1004.3 0.0
16/10:30pm 32.9 31.7 18.3 42 9.6 NW 22 35 12 19 1007.1 1004.6 0.0
16/10:00pm 33.5 32.5 18.0 39 10.1 NW 20 30 11 16 1007.4 1004.9 0.0
16/09:30pm 34.2 32.2 17.4 36 10.9 NW 24 33 13 18 1007.3 1004.8 0.0
16/09:00pm 34.8 33.2 16.6 33 11.7 NW 20 28 11 15 1007.1 1004.6 0.0
16/08:30pm 35.6 34.0 15.9 31 12.6 NNW 19 26 10 14 1006.6 1004.1 0.0
16/08:00pm 36.2 34.6 15.9 30 13.0 NW 19 28 10 15 1005.8 1003.4 0.0
16/07:30pm 36.8 34.0 15.3 28 13.7 NW 24 33 13 18 1005.2 1002.8 0.0
16/07:00pm 37.3 35.0 15.7 27 13.9 NW 22 32 12 17 1004.7 1002.2 0.0
16/06:30pm 37.9 34.8 15.7 27 14.2 NW 26 39 14 21 1004.2 1001.7 0.0
16/06:00pm 38.5 35.6 16.2 27 14.5 NW 26 35 14 19 1003.7 1001.2 0.0
16/05:30pm 39.2 36.5 15.5 24 15.2 NW 24 43 13 23 1003.3 1000.8 0.0
16/05:00pm 39.6 36.2 15.9 25 15.4 NW 28 43 15 23 1003.0 1000.5 0.0
16/04:32pm 40.3 36.9 15.8 23 15.9 NW 28 46 15 25 1003.0 1000.5 0.0
16/04:30pm 40.2 37.1 15.7 23 15.8 NW 26 46 14 25 1002.9 1000.4 0.0
16/04:00pm 40.3 37.4 15.2 23 16.2 NW 24 35 13 19 1003.0 1000.5 0.0
16/03:30pm 40.6 37.4 15.4 22 16.2 NW 26 41 14 22 1003.3 1000.8 0.0
16/03:00pm 40.3 37.8 15.2 23 16.2 NW 22 35 12 19 1003.9 1001.4 0.0
16/02:35pm 41.0 37.6 15.7 22 16.4 NW 28 46 15 25 1004.4 1001.9 0.0
16/02:30pm 41.3 38.5 15.3 22 16.8 NNW 24 46 13 25 1004.5 1002.0 0.0
16/02:00pm 40.1 36.4 15.0 23 16.1 NW 28 43 15 23 1005.2 1002.8 0.0
16/01:30pm 39.9 36.6 14.1 21 16.3 NNW 24 39 13 21 1005.6 1003.2 0.0
16/01:00pm 39.6 35.9 13.9 22 16.2 NNW 26 43 14 23 1006.1 1003.6 0.0
16/12:30pm 39.8 36.5 14.1 22 16.2 NNW 24 39 13 21 1006.4 1003.9 0.0
16/12:00pm 39.7 37.4 14.0 22 16.2 NNW 19 30 10 16 1006.7 1004.2 0.0
16/11:30am 38.8 36.1 14.6 24 15.3 WNW 22 32 12 17 1007.1 1004.6 0.0
16/11:00am 37.8 35.4 14.4 25 14.8 NW 20 30 11 16 1007.4 1004.9 0.0
16/10:30am 38.3 35.3 14.8 25 14.9 NW 24 39 13 21 1007.8 1005.3 0.0

Other Formats:

Comma delimited format used in spreadsheet applications
http://www.bom.gov.au/fwo/IDW60801/IDW60801.94319.axf

JavaScript Object Notation format (JSON) in row-major order
http://www.bom.gov.au/fwo/IDW60801/IDW60801.94319.json